Broughshane, United Kingdom
Current Conditions -  °F | °C
As of 6:20 AM on Saturday 27 Dec 2014 (Local Time) from EGAA Reporting Station
Broken Clouds Broken Clouds  
Wind Chill: 28°   Ceiling: 3800
Heat Index: 36°   Visibility: 6mi
Dew Point: 36°   Wind: 10mph
Humidity: 100%   Direction: 270°W
Pressure: 29.88"   Gusts: NA
Location:  54.89°N, 6.21°W
Report Text: EGAA 270620Z 27009KT 9999 FEW010 SCT022 BKN038 02/02 Q1012
Loading
Personal Weather Stations






























Interactive Weather Map New forecast layout! Learn more

10-Day Weather Forecast

Advertisements
Track Severe Weather on mobile